Time;durP1;ratioP1;P1;durP2;ratioP2;P2;SDS_P1;SDS_P2;PMS_P1;PMS_P2;Temp;Humidity;BMP_temperature;BMP_pressure;BME280_temperature;BME280_humidity;BME280_pressure;Samples;Min_cycle;Max_cycle;Signal;HPM_P1;HPM_P2
2022/09/06 00:00:28;;;;;;;1999.90;999.90;;;13.90;99.90;;;;;;5028621;28;20037;-79
2022/09/06 00:02:53;;;;;;;1999.90;999.90;;;13.90;99.90;;;;;;5027484;28;20029;-79
2022/09/06 00:05:19;;;;;;;1999.90;999.90;;;13.90;99.90;;;;;;5019341;28;20541;-79
2022/09/06 00:07:45;;;;;;;1999.90;999.90;;;13.80;99.90;;;;;;5023852;28;20397;-79
2022/09/06 00:10:11;;;;;;;1999.90;999.90;;;13.80;99.90;;;;;;5024212;28;20029;-79
2022/09/06 00:12:37;;;;;;;1999.90;999.90;;;13.80;99.90;;;;;;5028941;28;20028;-79
2022/09/06 00:15:03;;;;;;;1999.90;999.90;;;13.90;99.90;;;;;;5023727;28;20033;-79
2022/09/06 00:17:30;;;;;;;1999.90;999.90;;;13.80;99.90;;;;;;5027534;28;20033;-79
2022/09/06 00:19:56;;;;;;;1999.90;999.90;;;13.70;99.90;;;;;;5025502;28;20508;-80
2022/09/06 00:22:22;;;;;;;1999.90;999.90;;;13.70;99.90;;;;;;5009934;28;20056;-79
2022/09/06 00:24:47;;;;;;;1999.90;999.90;;;13.60;99.90;;;;;;5006796;28;20075;-79
2022/09/06 00:27:13;;;;;;;1999.90;999.90;;;13.50;99.90;;;;;;5028831;28;20492;-80
2022/09/06 00:29:38;;;;;;;1999.90;999.90;;;13.50;99.90;;;;;;5027400;28;20087;-80
2022/09/06 00:32:04;;;;;;;1999.90;999.90;;;13.50;99.90;;;;;;5022144;28;20029;-80
2022/09/06 00:34:30;;;;;;;1999.90;999.90;;;13.60;99.90;;;;;;5007472;28;20481;-80
2022/09/06 00:36:55;;;;;;;1999.90;999.90;;;13.50;99.90;;;;;;5022850;28;20038;-79
2022/09/06 00:39:21;;;;;;;1999.90;999.90;;;13.50;99.90;;;;;;5021835;28;20529;-79
2022/09/06 00:41:47;;;;;;;1999.90;999.90;;;13.50;99.90;;;;;;5025324;28;20104;-79
2022/09/06 00:44:12;;;;;;;1999.90;999.90;;;13.50;99.90;;;;;;5028603;28;20112;-79
2022/09/06 00:46:43;;;;;;;1999.90;999.90;;;13.50;99.90;;;;;;5024527;28;20105;-80
2022/09/06 00:49:11;;;;;;;;;;;13.50;99.90;;;;;;5008105;28;20160;-80
2022/09/06 00:51:38;;;;;;;1999.90;999.90;;;13.50;99.90;;;;;;5023237;28;19921;-80
2022/09/06 00:54:06;;;;;;;1999.90;999.90;;;13.40;99.90;;;;;;5028580;28;20030;-79
2022/09/06 00:56:39;;;;;;;1999.90;999.90;;;13.50;99.90;;;;;;5019789;28;20128;-80
2022/09/06 00:59:06;;;;;;;1999.90;999.90;;;13.50;99.90;;;;;;5021352;28;20027;-79
2022/09/06 01:01:31;;;;;;;1999.90;999.90;;;13.60;99.90;;;;;;5025838;28;20116;-80
2022/09/06 01:03:57;;;;;;;1999.90;999.90;;;13.70;99.90;;;;;;5019237;28;20548;-80
2022/09/06 01:06:35;;;;;;;1999.90;999.90;;;13.80;99.90;;;;;;5026849;28;20057;-78
2022/09/06 01:09:18;;;;;;;1999.90;999.90;;;13.80;99.90;;;;;;5024428;28;20025;-78
2022/09/06 01:11:44;;;;;;;1999.90;999.90;;;13.80;99.90;;;;;;5030527;28;20029;-78
2022/09/06 01:14:24;;;;;;;1999.90;999.90;;;13.80;99.90;;;;;;5032062;28;20030;-78
2022/09/06 01:16:56;;;;;;;;;;;13.70;99.90;;;;;;5026322;28;20037;-78
2022/09/06 01:19:43;;;;;;;1999.90;999.90;;;13.80;99.90;;;;;;5031046;28;19959;-78
2022/09/06 01:22:23;;;;;;;1999.90;999.90;;;13.80;99.90;;;;;;5024053;28;20056;-78
2022/09/06 01:25:02;;;;;;;1999.90;999.90;;;13.70;99.90;;;;;;5031418;28;20037;-79
2022/09/06 01:27:34;;;;;;;1999.90;999.90;;;13.70;99.90;;;;;;5039509;28;20037;-78
2022/09/06 01:30:05;;;;;;;1999.90;999.90;;;13.60;99.90;;;;;;5026280;28;20021;-77
2022/09/06 01:32:54;;;;;;;1999.90;999.90;;;13.60;99.90;;;;;;5029805;28;20038;-78
2022/09/06 01:35:26;;;;;;;1999.90;999.90;;;13.60;99.90;;;;;;5025562;28;20084;-78
2022/09/06 01:37:53;;;;;;;1999.90;999.90;;;13.60;99.90;;;;;;5030805;28;20076;-78
2022/09/06 01:40:19;;;;;;;1999.90;999.90;;;13.60;99.90;;;;;;5027683;28;20049;-78
2022/09/06 01:42:48;;;;;;;1999.90;999.90;;;13.60;99.90;;;;;;5022718;28;20770;-77
2022/09/06 01:45:17;;;;;;;1999.90;999.90;;;13.50;99.90;;;;;;5029506;28;20042;-78
2022/09/06 01:47:55;;;;;;;1999.90;999.90;;;13.50;99.90;;;;;;5032206;28;20072;-78
2022/09/06 01:50:24;;;;;;;1999.90;999.90;;;13.50;99.90;;;;;;5024410;28;20101;-78
2022/09/06 01:53:08;;;;;;;1999.90;999.90;;;13.50;99.90;;;;;;5029504;28;20039;-78
2022/09/06 01:55:55;;;;;;;1999.90;999.90;;;13.50;99.90;;;;;;5031612;28;20037;-79
2022/09/06 01:58:32;;;;;;;1999.90;999.90;;;13.60;99.90;;;;;;5027083;28;20029;-78
2022/09/06 02:01:22;;;;;;;1999.90;999.90;;;13.60;99.90;;;;;;5025058;28;20087;-80
2022/09/06 02:04:05;;;;;;;1999.90;999.90;;;13.60;99.90;;;;;;5025330;28;20040;-78
2022/09/06 02:06:43;;;;;;;1999.90;999.90;;;13.60;99.90;;;;;;5029730;28;20030;-78
2022/09/06 02:09:14;;;;;;;1999.90;999.90;;;13.60;99.90;;;;;;5030652;28;20118;-78
2022/09/06 02:12:03;;;;;;;1999.90;999.90;;;13.60;99.90;;;;;;5027043;28;20036;-79
2022/09/06 02:14:45;;;;;;;1999.90;999.90;;;13.60;99.90;;;;;;5029914;28;20528;-79
2022/09/06 02:17:16;;;;;;;1999.90;999.90;;;13.60;99.90;;;;;;5026530;28;20038;-78
2022/09/06 02:19:45;;;;;;;1999.90;999.90;;;13.60;99.90;;;;;;5028242;28;20021;-78
2022/09/06 02:22:14;;;;;;;1999.90;999.90;;;13.70;99.90;;;;;;5028367;28;20034;-78
2022/09/06 02:24:42;;;;;;;1999.90;999.90;;;13.60;99.90;;;;;;5028709;28;20603;-79
2022/09/06 02:27:09;;;;;;;1999.90;999.90;;;13.70;99.90;;;;;;5020710;28;20033;-79
2022/09/06 02:29:35;;;;;;;1999.90;999.90;;;13.70;99.90;;;;;;5026667;28;20409;-79
2022/09/06 02:32:30;;;;;;;1999.90;999.90;;;13.70;99.90;;;;;;5022943;28;20030;-78
2022/09/06 02:34:56;;;;;;;1999.90;999.90;;;13.80;99.90;;;;;;5021460;28;20029;-79
2022/09/06 02:37:24;;;;;;;1999.90;999.90;;;13.80;99.90;;;;;;5027012;28;20044;-78
2022/09/06 02:39:51;;;;;;;1999.90;999.90;;;13.80;99.90;;;;;;5030595;28;20140;-78
2022/09/06 02:42:16;;;;;;;1999.90;999.90;;;13.70;99.90;;;;;;5024211;28;20045;-79
2022/09/06 02:44:42;;;;;;;1999.90;999.90;;;13.60;99.90;;;;;;5028110;28;20244;-78
2022/09/06 02:47:08;;;;;;;1999.90;999.90;;;13.70;99.90;;;;;;5029502;28;20032;-78
2022/09/06 02:49:33;;;;;;;1999.90;999.90;;;13.60;99.90;;;;;;5009623;28;20030;-78
2022/09/06 02:51:59;;;;;;;1999.90;999.90;;;13.60;99.90;;;;;;5027950;28;20140;-78
2022/09/06 02:54:25;;;;;;;1999.90;999.90;;;13.60;99.90;;;;;;5030386;28;20037;-78
2022/09/06 02:56:50;;;;;;;1999.90;999.90;;;13.50;99.90;;;;;;5030757;28;20037;-79
2022/09/06 02:59:16;;;;;;;1999.90;999.90;;;13.60;99.90;;;;;;5029352;28;20030;-79
2022/09/06 03:01:42;;;;;;;1999.90;999.90;;;13.80;99.90;;;;;;5029771;28;20037;-78
2022/09/06 03:04:07;;;;;;;1999.90;999.90;;;13.90;99.90;;;;;;5030359;28;20032;-79
2022/09/06 03:06:33;;;;;;;1999.90;999.90;;;13.90;99.90;;;;;;5023726;28;20094;-78
2022/09/06 03:08:59;;;;;;;1999.90;999.90;;;13.90;99.90;;;;;;5030438;28;20056;-79
2022/09/06 03:11:25;;;;;;;1999.90;999.90;;;13.90;99.90;;;;;;5029966;28;20103;-79
2022/09/06 03:13:51;;;;;;;1999.90;999.90;;;14.00;99.90;;;;;;5025190;28;20554;-79
2022/09/06 03:16:18;;;;;;;1999.90;999.90;;;13.90;99.90;;;;;;5025447;28;20060;-78
2022/09/06 03:18:44;;;;;;;1999.90;999.90;;;14.00;99.90;;;;;;5026833;28;20044;-78
2022/09/06 03:21:10;;;;;;;1999.90;999.90;;;13.90;99.90;;;;;;5025539;28;20033;-79
2022/09/06 03:23:38;;;;;;;1999.90;999.90;;;14.00;99.90;;;;;;5027147;28;20048;-78
2022/09/06 03:26:04;;;;;;;1999.90;999.90;;;14.00;99.90;;;;;;5021528;28;20110;-78
2022/09/06 03:28:30;;;;;;;1999.90;999.90;;;13.90;99.90;;;;;;5026209;28;20044;-79
2022/09/06 03:30:56;;;;;;;1999.90;999.90;;;13.80;99.90;;;;;;5023706;28;20022;-78
2022/09/06 03:33:22;;;;;;;1999.90;999.90;;;13.80;99.90;;;;;;5029860;28;20473;-78
2022/09/06 03:35:54;;;;;;;1999.90;999.90;;;13.60;99.90;;;;;;5024064;28;20033;-79
2022/09/06 03:38:20;;;;;;;1999.90;999.90;;;13.60;99.90;;;;;;5021570;28;20029;-78
2022/09/06 03:40:46;;;;;;;1999.90;999.90;;;13.60;99.90;;;;;;5027828;28;20630;-79
2022/09/06 03:43:13;;;;;;;1999.90;999.90;;;13.50;99.90;;;;;;5029598;28;20539;-78
2022/09/06 03:45:39;;;;;;;1999.90;999.90;;;13.50;99.90;;;;;;5025016;28;20461;-78
2022/09/06 03:48:04;;;;;;;1999.90;999.90;;;13.60;99.90;;;;;;5029658;28;20029;-78
2022/09/06 03:50:30;;;;;;;1999.90;999.90;;;13.60;99.90;;;;;;5027029;28;20045;-78
2022/09/06 03:52:56;;;;;;;1999.90;999.90;;;13.60;99.90;;;;;;5021795;28;20034;-78
2022/09/06 03:55:21;;;;;;;1999.90;999.90;;;13.70;99.90;;;;;;5023608;28;20030;-79
2022/09/06 03:57:47;;;;;;;1999.90;999.90;;;13.80;99.90;;;;;;5026956;28;20091;-79
2022/09/06 04:00:13;;;;;;;1999.90;999.90;;;13.80;99.90;;;;;;5025649;28;20033;-78
2022/09/06 04:02:39;;;;;;;1999.90;999.90;;;13.80;99.90;;;;;;5028865;28;20048;-79
2022/09/06 04:05:05;;;;;;;1999.90;999.90;;;13.90;99.90;;;;;;5025635;28;20104;-78
2022/09/06 04:07:31;;;;;;;1999.90;999.90;;;13.90;99.90;;;;;;5028323;28;20735;-79
2022/09/06 04:09:56;;;;;;;1999.90;999.90;;;14.00;99.90;;;;;;5022007;28;20125;-79
2022/09/06 04:12:22;;;;;;;1999.90;999.90;;;14.00;99.90;;;;;;5026782;28;20029;-78
2022/09/06 04:14:48;;;;;;;1999.90;999.90;;;14.00;99.90;;;;;;5024168;28;20036;-78
2022/09/06 04:17:13;;;;;;;1999.90;999.90;;;14.00;99.90;;;;;;5026787;28;20394;-78
2022/09/06 04:19:39;;;;;;;1999.90;999.90;;;14.10;99.90;;;;;;5026347;28;20056;-78
2022/09/06 04:22:05;;;;;;;1999.90;999.90;;;14.10;99.90;;;;;;5025396;28;20483;-78
2022/09/06 04:24:31;;;;;;;1999.90;999.90;;;14.10;99.90;;;;;;5011588;28;20084;-78
2022/09/06 04:26:57;;;;;;;1999.90;999.90;;;14.20;99.90;;;;;;5026637;28;20067;-78
2022/09/06 04:29:23;;;;;;;1999.90;999.90;;;14.20;99.90;;;;;;5028724;28;20061;-78
2022/09/06 04:31:49;;;;;;;1999.90;999.90;;;14.20;99.90;;;;;;4998568;28;20437;-78
2022/09/06 04:34:15;;;;;;;1999.90;999.90;;;14.20;99.90;;;;;;5024615;28;20052;-78
2022/09/06 04:36:41;;;;;;;1999.90;999.90;;;14.20;99.90;;;;;;5027948;28;20037;-78
2022/09/06 04:39:06;;;;;;;1999.90;999.90;;;14.20;99.90;;;;;;5023361;28;20033;-78
2022/09/06 04:41:32;;;;;;;1999.90;999.90;;;14.20;99.90;;;;;;5024358;28;20037;-78
2022/09/06 04:43:58;;;;;;;1999.90;999.90;;;14.30;99.90;;;;;;5027038;28;20500;-78
2022/09/06 04:46:29;;;;;;;1999.90;999.90;;;14.40;99.90;;;;;;5028030;28;20071;-78
2022/09/06 04:48:56;;;;;;;1130.50;675.95;;;14.50;99.90;;;;;;5027802;28;20091;-78
2022/09/06 04:51:23;;;;;;;1999.90;999.90;;;14.40;99.90;;;;;;5027164;28;20030;-79
2022/09/06 04:53:49;;;;;;;1999.90;999.90;;;14.40;99.90;;;;;;5025128;28;20030;-79
2022/09/06 04:56:17;;;;;;;1999.90;999.90;;;14.30;99.90;;;;;;5025689;28;20560;-79
2022/09/06 04:58:44;;;;;;;1999.90;999.90;;;14.20;99.90;;;;;;5018799;28;20038;-80
2022/09/06 05:01:10;;;;;;;1999.90;999.90;;;14.20;99.90;;;;;;5023430;28;20034;-78
2022/09/06 05:03:36;;;;;;;1999.90;999.90;;;14.20;99.90;;;;;;5022011;28;20056;-78
2022/09/06 05:06:07;;;;;;;1999.90;999.90;;;14.10;99.90;;;;;;5023252;28;20478;-79
2022/09/06 05:08:34;;;;;;;1999.90;999.90;;;14.10;99.90;;;;;;5022384;28;20036;-79
2022/09/06 05:11:00;;;;;;;1999.90;999.90;;;14.00;99.90;;;;;;5018639;28;20036;-78
2022/09/06 05:13:26;;;;;;;1999.90;999.90;;;14.00;99.90;;;;;;5018506;28;20038;-79
2022/09/06 05:15:51;;;;;;;1999.90;999.90;;;14.10;99.90;;;;;;5024531;28;20081;-79
2022/09/06 05:18:17;;;;;;;1999.90;999.90;;;14.00;99.90;;;;;;5013793;28;20040;-79
2022/09/06 05:20:42;;;;;;;1999.90;999.90;;;14.10;99.90;;;;;;5027308;28;20460;-78
2022/09/06 05:23:08;;;;;;;1999.90;999.90;;;14.10;99.90;;;;;;5020117;28;20038;-79
2022/09/06 05:25:34;;;;;;;1999.90;999.90;;;14.20;99.90;;;;;;5002549;28;20041;-79
2022/09/06 05:27:59;;;;;;;1999.90;999.90;;;14.30;99.90;;;;;;5028531;28;20431;-78
2022/09/06 05:30:25;;;;;;;1999.90;999.90;;;14.40;99.90;;;;;;5016662;28;20132;-78
2022/09/06 05:32:51;;;;;;;1999.90;999.90;;;14.40;99.90;;;;;;5013814;28;20034;-78
2022/09/06 05:35:16;;;;;;;1999.90;999.90;;;14.40;99.90;;;;;;5005557;28;20497;-78
2022/09/06 05:37:42;;;;;;;1999.90;999.90;;;14.50;99.90;;;;;;5001872;28;20619;-79
2022/09/06 05:40:08;;;;;;;1999.90;999.90;;;14.50;99.90;;;;;;5027170;28;20057;-79
2022/09/06 05:42:34;;;;;;;1999.90;999.90;;;14.50;99.90;;;;;;5025980;28;20129;-83
2022/09/06 05:45:00;;;;;;;1999.90;999.90;;;14.60;99.90;;;;;;5022926;28;20543;-81
2022/09/06 05:47:26;;;;;;;1999.90;999.90;;;14.70;99.90;;;;;;5026977;28;20616;-79
2022/09/06 05:49:53;;;;;;;1999.90;999.90;;;14.70;99.90;;;;;;5024461;28;20057;-80
2022/09/06 05:52:18;;;;;;;1999.90;999.90;;;14.90;99.90;;;;;;5023012;28;20037;-80
2022/09/06 05:54:44;;;;;;;1999.90;999.90;;;15.10;99.90;;;;;;5025851;28;20033;-81
2022/09/06 05:57:10;;;;;;;1999.90;999.90;;;15.10;99.90;;;;;;5031090;28;20029;-81
2022/09/06 05:59:36;;;;;;;1999.90;999.90;;;15.20;99.90;;;;;;5026456;28;20543;-81
2022/09/06 06:02:01;;;;;;;1999.90;999.90;;;15.20;99.90;;;;;;5013488;28;20080;-80
2022/09/06 06:04:27;;;;;;;1999.90;999.90;;;15.20;99.90;;;;;;5021111;28;20400;-80
2022/09/06 06:06:52;;;;;;;1999.90;999.90;;;15.30;99.90;;;;;;5023404;28;20034;-78
2022/09/06 06:09:18;;;;;;;1999.90;999.90;;;15.40;99.90;;;;;;5031549;28;20026;-80
2022/09/06 06:11:44;;;;;;;1999.90;999.90;;;15.50;99.90;;;;;;5027340;28;20481;-80
2022/09/06 06:14:09;;;;;;;1999.90;999.90;;;15.40;99.90;;;;;;5025929;28;20026;-81
2022/09/06 06:16:35;;;;;;;1999.90;999.90;;;15.60;99.90;;;;;;5026327;28;20525;-79
2022/09/06 06:19:01;;;;;;;1999.90;999.90;;;15.80;99.90;;;;;;5010160;28;20034;-79
2022/09/06 06:21:32;;;;;;;1999.90;999.90;;;15.80;99.90;;;;;;5028363;28;20113;-79
2022/09/06 06:24:02;;;;;;;1999.90;999.90;;;16.00;99.90;;;;;;5035716;28;20033;-80
2022/09/06 06:26:30;;;;;;;1999.90;999.90;;;16.20;99.90;;;;;;5027028;28;20072;-81
2022/09/06 06:28:57;;;;;;;1999.90;999.90;;;16.20;99.90;;;;;;5021241;28;20107;-82
2022/09/06 06:31:23;;;;;;;1999.90;999.90;;;16.40;99.90;;;;;;5024689;28;20038;-80
2022/09/06 06:33:49;;;;;;;1999.90;999.90;;;16.50;99.90;;;;;;5028181;28;20519;-80
2022/09/06 06:36:15;;;;;;;1999.90;999.90;;;16.50;99.90;;;;;;5025678;28;20037;-80
2022/09/06 06:38:42;;;;;;;1999.90;999.90;;;16.60;99.90;;;;;;5019445;28;20033;-80
2022/09/06 06:41:10;;;;;;;1999.90;999.90;;;16.70;99.90;;;;;;5026723;28;20077;-80
2022/09/06 06:43:36;;;;;;;1999.90;999.90;;;16.70;99.90;;;;;;5024630;28;20038;-80
2022/09/06 06:46:07;;;;;;;1999.90;999.90;;;16.80;99.90;;;;;;5028276;28;20033;-80
2022/09/06 06:48:33;;;;;;;1999.90;999.90;;;16.90;99.90;;;;;;5023177;28;20053;-79
2022/09/06 06:50:59;;;;;;;1999.90;999.90;;;17.10;99.90;;;;;;5024214;28;20129;-80
2022/09/06 06:53:25;;;;;;;1999.90;999.90;;;17.20;99.90;;;;;;5028127;28;20113;-80
2022/09/06 06:55:50;;;;;;;1999.90;999.90;;;17.30;99.90;;;;;;5040839;28;20044;-81
2022/09/06 06:58:17;;;;;;;1999.90;999.90;;;17.50;99.90;;;;;;5027630;28;20404;-78
2022/09/06 07:00:43;;;;;;;1999.90;999.90;;;17.70;99.90;;;;;;5019379;28;20037;-77
2022/09/06 07:03:10;;;;;;;1999.90;999.90;;;17.70;99.90;;;;;;5021163;28;20029;-76
2022/09/06 07:05:36;;;;;;;1999.90;999.90;;;17.90;99.90;;;;;;5023467;28;20037;-76
2022/09/06 07:08:03;;;;;;;1999.90;999.90;;;18.00;99.90;;;;;;5016049;28;20050;-76
2022/09/06 07:10:28;;;;;;;1297.03;591.63;;;18.00;99.90;;;;;;5026887;28;20030;-76
2022/09/06 07:12:54;;;;;;;1999.90;999.90;;;18.20;99.90;;;;;;5022494;28;20550;-76
2022/09/06 07:15:19;;;;;;;1999.90;999.90;;;18.30;99.90;;;;;;5009360;28;20029;-77
2022/09/06 07:17:45;;;;;;;1999.90;999.90;;;18.40;99.90;;;;;;5017104;28;20145;-76
2022/09/06 07:20:11;;;;;;;1307.53;523.60;;;18.50;99.90;;;;;;5025229;28;20034;-76
2022/09/06 07:22:37;;;;;;;1999.90;999.90;;;18.60;99.90;;;;;;5024471;28;20113;-76
2022/09/06 07:25:07;;;;;;;1999.90;999.90;;;18.70;99.90;;;;;;5022860;28;20508;-78
2022/09/06 07:27:32;;;;;;;1999.90;999.90;;;18.90;99.90;;;;;;5025169;28;20044;-76
2022/09/06 07:29:58;;;;;;;1999.90;999.90;;;19.00;99.90;;;;;;5019957;28;20038;-77
2022/09/06 07:32:24;;;;;;;1999.90;999.90;;;19.50;99.90;;;;;;5000502;28;20030;-77
2022/09/06 07:34:49;;;;;;;1734.82;841.60;;;19.70;99.90;;;;;;5019762;28;20056;-78
2022/09/06 07:37:15;;;;;;;1574.18;689.95;;;20.00;99.90;;;;;;5023372;28;20085;-78
2022/09/06 07:39:41;;;;;;;1486.40;883.08;;;20.10;99.90;;;;;;5025190;28;20068;-77
2022/09/06 07:42:06;;;;;;;1505.90;920.92;;;20.20;99.90;;;;;;5025535;28;20041;-77
2022/09/06 07:44:32;;;;;;;1853.63;999.90;;;20.20;99.90;;;;;;5025657;28;20492;-78
2022/09/06 07:47:01;;;;;;;1599.32;963.25;;;20.60;99.90;;;;;;5025571;28;20041;-78
2022/09/06 07:49:27;;;;;;;1030.97;922.95;;;20.50;99.90;;;;;;5009855;28;20030;-81
2022/09/06 07:51:53;;;;;;;1999.90;999.90;;;20.50;99.90;;;;;;5029071;28;20056;-80
2022/09/06 07:54:19;;;;;;;1810.13;976.42;;;20.70;99.90;;;;;;5020274;28;20060;-80
2022/09/06 07:56:44;;;;;;;1999.90;999.90;;;20.60;99.90;;;;;;5022244;28;20413;-79
2022/09/06 07:59:10;;;;;;;1999.90;999.90;;;20.40;99.90;;;;;;5021310;28;20064;-80
2022/09/06 08:01:40;;;;;;;1673.65;999.90;;;20.50;99.90;;;;;;5024824;28;20053;-78
2022/09/06 08:04:11;;;;;;;977.50;869.40;;;20.70;99.90;;;;;;5027236;28;20048;-77
2022/09/06 08:06:40;;;;;;;1448.95;998.83;;;20.60;99.70;;;;;;5024821;28;20413;-79
2022/09/06 08:09:09;;;;;;;1732.25;999.90;;;20.50;99.90;;;;;;5027276;28;20076;-81
2022/09/06 08:11:36;;;;;;;1688.57;999.90;;;20.50;99.90;;;;;;5023937;28;20115;-79
2022/09/06 08:14:04;;;;;;;1088.32;976.25;;;20.50;99.90;;;;;;5022792;28;20104;-79
2022/09/06 08:16:31;;;;;;;1019.28;915.58;;;20.40;98.60;;;;;;5021743;28;20034;-79
2022/09/06 08:18:58;;;;;;;1826.97;999.90;;;20.40;99.80;;;;;;5027946;28;20036;-79
2022/09/06 08:21:26;;;;;;;1571.05;956.00;;;20.30;99.90;;;;;;5028127;28;20049;-81
2022/09/06 08:23:55;;;;;;;1212.53;959.42;;;20.30;99.90;;;;;;5030785;28;20101;-81
2022/09/06 08:26:22;;;;;;;1307.60;987.88;;;20.50;99.90;;;;;;5025285;28;20105;-82
2022/09/06 08:29:04;;;;;;;1767.50;989.55;;;20.70;99.90;;;;;;5027194;28;20502;-78
2022/09/06 08:31:31;;;;;;;1778.57;999.90;;;21.10;99.60;;;;;;5034731;28;20033;-78
2022/09/06 08:33:58;;;;;;;1831.10;999.90;;;21.30;99.20;;;;;;5026373;28;20026;-78
2022/09/06 08:36:28;;;;;;;1138.53;938.30;;;21.50;99.90;;;;;;5023245;28;20035;-79
2022/09/06 08:38:58;;;;;;;879.70;726.90;;;21.60;97.90;;;;;;5021928;28;20033;-77
2022/09/06 08:41:31;;;;;;;1045.65;934.70;;;21.70;95.30;;;;;;5018307;28;20493;-78
2022/09/06 08:43:59;;;;;;;1166.05;998.35;;;21.90;94.80;;;;;;5022897;28;20045;-80
2022/09/06 08:46:45;;;;;;;814.25;741.90;;;22.10;94.90;;;;;;5016470;28;20057;-79
2022/09/06 08:49:11;;;;;;;1006.15;896.25;;;22.20;92.80;;;;;;5015731;28;20036;-80
2022/09/06 08:52:09;;;;;;;858.90;785.75;;;22.60;94.80;;;;;;5021357;28;20038;-79
2022/09/06 08:54:53;;;;;;;1082.55;881.55;;;22.70;92.30;;;;;;4977595;28;20041;-80
2022/09/06 08:57:54;;;;;;;931.25;857.20;;;23.00;94.50;;;;;;5019016;28;20032;-79
2022/09/06 09:00:21;;;;;;;702.58;657.97;;;23.10;91.50;;;;;;4940021;28;20062;-83
2022/09/06 09:03:09;;;;;;;720.35;671.33;;;23.40;91.50;;;;;;5013651;28;20045;-81
2022/09/06 09:05:37;;;;;;;476.40;449.52;;;23.70;84.00;;;;;;5022258;28;20033;-79
2022/09/06 09:08:38;;;;;;;928.30;847.42;;;23.70;87.90;;;;;;5014971;28;20032;-83
2022/09/06 09:11:13;;;;;;;562.13;528.20;;;23.70;88.00;;;;;;5022333;28;20026;-79
2022/09/06 09:13:47;;;;;;;710.03;659.90;;;23.70;88.00;;;;;;5027104;28;20033;-80
2022/09/06 09:16:14;;;;;;;534.67;502.60;;;23.80;85.70;;;;;;5021101;28;20405;-81
2022/09/06 09:18:43;;;;;;;453.33;430.35;;;24.00;83.80;;;;;;5016773;28;20041;-81
2022/09/06 09:21:09;;;;;;;497.50;471.05;;;24.10;83.30;;;;;;5030596;28;20033;-79
2022/09/06 09:23:35;;;;;;;684.50;640.90;;;24.00;84.30;;;;;;5032249;28;20095;-80
2022/09/06 09:26:09;;;;;;;791.35;726.30;;;24.50;81.90;;;;;;5026407;28;20062;-80
2022/09/06 09:28:35;;;;;;;839.90;777.70;;;24.40;84.00;;;;;;5017913;28;20057;-78
2022/09/06 09:31:01;;;;;;;366.83;311.23;;;24.10;85.60;;;;;;5022391;28;20552;-83
2022/09/06 09:33:28;;;;;;;484.10;455.02;;;23.90;80.20;;;;;;5022219;28;20034;-83
2022/09/06 09:35:57;;;;;;;465.27;439.02;;;23.90;84.40;;;;;;5027185;28;20038;-81
2022/09/06 09:38:31;;;;;;;369.85;350.77;;;23.60;81.70;;;;;;5004766;28;20033;-82
2022/09/06 09:41:04;;;;;;;645.72;603.28;;;23.30;83.70;;;;;;5019385;28;20484;-81
2022/09/06 09:43:40;;;;;;;542.05;511.20;;;23.10;86.00;;;;;;5032684;28;20030;-81
2022/09/06 09:46:14;;;;;;;1165.00;851.85;;;23.30;84.40;;;;;;5008386;28;20034;-80
2022/09/06 09:49:01;;;;;;;857.33;789.35;;;23.70;87.00;;;;;;5021639;28;20099;-81
2022/09/06 09:51:28;;;;;;;560.03;516.35;;;24.40;85.80;;;;;;5015324;28;20026;-79
2022/09/06 09:53:59;;;;;;;475.50;438.75;;;24.40;78.80;;;;;;5010965;28;20164;-81
2022/09/06 09:56:45;;;;;;;643.05;603.60;;;24.40;78.20;;;;;;5027010;28;20030;-79
2022/09/06 09:59:24;;;;;;;853.83;778.22;;;24.20;82.90;;;;;;5027214;28;20037;-81
2022/09/06 10:01:56;;;;;;;736.63;679.25;;;24.00;83.10;;;;;;5022561;28;20037;-84
2022/09/06 10:04:37;;;;;;;527.05;493.80;;;24.20;82.30;;;;;;5023975;28;20049;-89
2022/09/06 10:07:11;;;;;;;824.33;762.03;;;24.20;79.60;;;;;;5001829;28;20492;-89
2022/09/06 10:09:41;;;;;;;491.40;463.98;;;24.20;85.00;;;;;;5019528;28;20030;-82
2022/09/06 10:12:07;;;;;;;425.63;405.17;;;24.40;80.70;;;;;;5013851;28;20034;-87
2022/09/06 10:14:44;;;;;;;513.83;485.90;;;24.30;79.30;;;;;;5015804;28;20034;-82
2022/09/06 10:17:18;;;;;;;835.00;774.90;;;24.80;78.50;;;;;;5021520;28;20529;-82
2022/09/06 10:19:45;;;;;;;406.17;387.42;;;24.60;82.60;;;;;;5029584;28;20600;-82
2022/09/06 10:22:18;;;;;;;566.25;534.35;;;24.80;75.60;;;;;;5024758;28;20022;-82
2022/09/06 10:24:56;;;;;;;606.22;567.63;;;25.00;78.90;;;;;;5023944;28;20064;-82
2022/09/06 10:27:26;;;;;;;559.83;518.10;;;24.90;80.80;;;;;;5022434;28;20448;-82
2022/09/06 10:30:02;;;;;;;423.13;402.25;;;24.90;75.00;;;;;;5029117;28;20087;-83
2022/09/06 10:32:38;;;;;;;687.60;646.05;;;25.40;76.20;;;;;;5019951;28;20045;-82
2022/09/06 10:35:22;;;;;;;548.80;521.40;;;25.50;78.20;;;;;;5023981;28;20049;-82
2022/09/06 10:38:12;;;;;;;366.52;349.40;;;25.70;75.30;;;;;;5016658;28;20112;-82
2022/09/06 10:41:10;;;;;;;316.20;302.13;;;25.60;74.10;;;;;;5021369;28;20091;-82
2022/09/06 10:43:59;;;;;;;344.88;329.08;;;25.60;73.20;;;;;;5025475;28;20032;-81
2022/09/06 10:46:27;;;;;;;385.55;365.08;;;25.40;73.00;;;;;;5029373;28;20033;-82
2022/09/06 10:48:52;;;;;;;534.00;505.60;;;25.50;75.00;;;;;;5026687;28;20021;-80
2022/09/06 10:51:53;;;;;;;576.95;543.33;;;25.70;76.10;;;;;;5025932;28;20076;-83
2022/09/06 10:54:23;;;;;;;474.27;444.75;;;26.50;74.00;;;;;;5022739;28;20028;-79
2022/09/06 10:57:01;;;;;;;471.23;447.45;;;27.20;68.50;;;;;;5010389;28;20040;-74
2022/09/06 10:59:31;;;;;;;278.30;264.35;;;28.20;68.60;;;;;;5016841;28;20106;-74
2022/09/06 11:02:20;;;;;;;433.55;413.58;;;27.30;64.90;;;;;;5009073;28;20150;-77
2022/09/06 11:04:49;;;;;;;414.45;394.15;;;27.30;67.90;;;;;;4982241;28;20125;-77
2022/09/06 11:07:19;;;;;;;439.42;418.88;;;27.30;65.60;;;;;;5013947;28;20033;-77
2022/09/06 11:09:50;;;;;;;502.05;478.38;;;27.00;66.40;;;;;;5010155;28;20108;-77
2022/09/06 11:12:28;;;;;;;528.95;503.27;;;26.70;65.00;;;;;;5007717;28;20026;-79
2022/09/06 11:14:54;;;;;;;456.40;433.70;;;26.20;68.90;;;;;;5023174;28;20026;-79
2022/09/06 11:17:47;;;;;;;410.70;391.38;;;25.80;65.70;;;;;;5027556;28;20029;-81
2022/09/06 11:20:31;;;;;;;660.55;618.95;;;25.60;65.60;;;;;;5022820;28;20032;-82
2022/09/06 11:23:19;;;;;;;561.40;525.50;;;25.50;69.90;;;;;;5020766;28;20025;-82
2022/09/06 11:26:00;;;;;;;627.97;590.13;;;25.40;69.20;;;;;;5025546;28;20033;-80
2022/09/06 11:28:43;;;;;;;705.95;662.72;;;25.30;69.80;;;;;;5028635;28;20030;-83
2022/09/06 11:31:17;;;;;;;474.50;449.23;;;25.20;75.50;;;;;;5014515;28;20688;-83
2022/09/06 11:33:43;;;;;;;448.02;426.90;;;25.10;72.20;;;;;;5028171;28;20075;-83
2022/09/06 11:36:36;;;;;;;538.53;508.95;;;25.60;70.10;;;;;;5026521;28;20889;-81
2022/09/06 11:39:05;;;;;;;653.85;613.80;;;25.70;71.50;;;;;;5014735;28;20044;-81
2022/09/06 11:41:40;;;;;;;561.85;531.17;;;25.90;72.70;;;;;;5021110;28;20041;-80
2022/09/06 11:44:08;;;;;;;804.85;748.55;;;26.00;70.80;;;;;;5036920;28;20017;-80
2022/09/06 11:46:34;;;;;;;660.22;617.53;;;25.90;72.30;;;;;;5020092;28;20041;-80
2022/09/06 11:49:02;;;;;;;524.90;499.38;;;26.00;76.20;;;;;;5023942;28;20103;-81
2022/09/06 11:51:33;;;;;;;578.67;546.05;;;25.30;69.80;;;;;;5020696;28;20508;-84
2022/09/06 11:54:29;;;;;;;640.45;602.50;;;25.00;70.70;;;;;;5024835;28;20060;-84
2022/09/06 11:57:07;;;;;;;712.40;666.30;;;24.90;74.00;;;;;;5022395;28;20034;-78
2022/09/06 11:59:44;;;;;;;547.85;517.38;;;24.90;75.60;;;;;;5028167;28;20029;-80
2022/09/06 12:02:35;;;;;;;684.13;640.97;;;24.80;76.10;;;;;;5021556;28;20061;-80
2022/09/06 12:05:02;;;;;;;648.45;609.05;;;24.40;76.20;;;;;;5034917;28;20098;-81
2022/09/06 12:07:29;;;;;;;853.15;789.20;;;24.30;78.00;;;;;;5026594;28;20025;-82
2022/09/06 12:09:55;;;;;;;902.20;833.63;;;24.20;81.20;;;;;;5013813;28;20022;-82
2022/09/06 12:12:45;;;;;;;922.17;838.53;;;24.20;80.70;;;;;;5021476;28;20479;-79
2022/09/06 12:15:26;;;;;;;875.33;807.72;;;24.10;80.50;;;;;;5018434;28;20026;-85
2022/09/06 12:17:52;;;;;;;1271.78;996.83;;;24.20;82.10;;;;;;5021563;28;20076;-81